Time;durP1;ratioP1;P1;durP2;ratioP2;P2;SDS_P1;SDS_P2;PMS_P1;PMS_P2;Temp;Humidity;BMP_temperature;BMP_pressure;BME280_temperature;BME280_humidity;BME280_pressure;Samples;Min_cycle;Max_cycle;Signal;HPM_P1;HPM_P2
2021/12/02 00:01:06;;;;;;;6.53;5.93;;;;;;;3.68;98.85;99089.03;5070098;28;20207;-71
2021/12/02 00:03:35;;;;;;;6.87;6.20;;;;;;;3.64;99.11;99089.06;5070233;28;20224;-72
2021/12/02 00:06:01;;;;;;;6.83;6.33;;;;;;;3.65;99.52;99095.84;5070397;28;20195;-72
2021/12/02 00:08:28;;;;;;;7.20;6.57;;;;;;;3.72;99.65;99096.63;5069991;28;20668;-72
2021/12/02 00:10:56;;;;;;;7.17;6.53;;;;;;;3.80;99.23;99099.94;5070231;28;20214;-72
2021/12/02 00:13:25;;;;;;;6.60;5.90;;;;;;;3.80;98.89;99100.78;5068839;28;20203;-71
2021/12/02 00:15:56;;;;;;;7.30;6.57;;;;;;;3.85;98.75;99099.03;5070127;28;20200;-72
2021/12/02 00:21:03;;;;;;;7.97;7.27;;;;;;;3.84;97.88;99099.91;5069797;28;20207;-72
2021/12/02 00:21:20;;;;;;;7.30;6.70;;;;;;;3.78;97.62;99110.06;5069930;28;20257;-72
2021/12/02 00:23:53;;;;;;;7.23;6.53;;;;;;;3.68;97.56;99111.03;5069667;28;20222;-73
2021/12/02 00:26:22;;;;;;;6.50;6.10;;;;;;;3.74;97.23;99121.09;5069815;28;20189;-73
2021/12/02 00:28:53;;;;;;;6.80;6.17;;;;;;;3.76;97.19;99127.00;5068463;28;20254;-72
2021/12/02 00:31:22;;;;;;;8.83;7.33;;;;;;;3.75;97.09;99132.91;5069825;28;20196;-73
2021/12/02 00:33:53;;;;;;;21.70;11.70;;;;;;;3.77;96.65;99128.69;5068916;28;20203;-73
2021/12/02 00:36:23;;;;;;;16.33;10.27;;;;;;;3.78;95.91;99137.13;5068840;28;20553;-73
2021/12/02 00:38:51;;;;;;;9.47;8.13;;;;;;;3.60;96.65;99117.81;5067629;28;20205;-73
2021/12/02 00:41:21;;;;;;;10.50;7.40;;;;;;;3.68;96.54;99131.28;5067297;28;20611;-73
2021/12/02 00:43:50;;;;;;;11.27;7.97;;;;;;;3.68;96.66;99132.09;5068027;28;20235;-73
2021/12/02 00:46:19;;;;;;;10.70;7.90;;;;;;;3.71;96.60;99126.19;5069031;28;20192;-73
2021/12/02 00:48:47;;;;;;;11.10;8.30;;;;;;;3.70;96.54;99125.34;5071098;28;20196;-73
2021/12/02 00:51:17;;;;;;;8.63;7.73;;;;;;;3.66;96.37;99112.69;5070561;28;20200;-73
2021/12/02 00:53:51;;;;;;;7.30;6.67;;;;;;;3.65;96.06;99116.94;5071603;28;20207;-72
2021/12/02 00:56:21;;;;;;;7.33;6.53;;;;;;;3.72;95.35;99111.84;5071708;28;20254;-73
2021/12/02 00:58:49;;;;;;;7.47;6.93;;;;;;;3.68;95.43;99105.94;5071008;28;20210;-72
2021/12/02 01:01:17;;;;;;;7.60;6.93;;;;;;;3.66;95.59;99097.50;5071371;28;20397;-73
2021/12/02 01:03:45;;;;;;;9.27;7.47;;;;;;;3.59;95.76;99096.69;5070872;28;20691;-73
2021/12/02 01:06:12;;;;;;;9.07;7.23;;;;;;;3.53;96.02;99096.75;5071140;28;20196;-73
2021/12/02 01:08:40;;;;;;;5.80;5.23;;;;;;;3.50;96.02;99093.38;5071226;28;20196;-72
2021/12/02 01:11:09;;;;;;;7.07;6.27;;;;;;;3.43;95.67;99079.91;5072096;28;20737;-73
2021/12/02 01:13:36;;;;;;;11.47;6.17;;;;;;;3.39;96.19;99077.44;5072821;28;20204;-73
2021/12/02 01:16:03;;;;;;;6.27;5.50;;;;;;;3.36;95.98;99092.66;5071620;28;20200;-73
2021/12/02 01:18:30;;;;;;;10.63;8.43;;;;;;;3.32;95.83;99091.84;5072682;28;20200;-73
2021/12/02 01:20:57;;;;;;;35.63;17.63;;;;;;;3.24;95.69;99090.19;5072577;28;20203;-72
2021/12/02 01:23:27;;;;;;;15.07;11.33;;;;;;;3.19;96.17;99082.63;5072579;28;20687;-73
2021/12/02 01:25:59;;;;;;;13.90;10.93;;;;;;;3.16;96.58;99091.09;5072487;28;20207;-72
2021/12/02 01:28:26;;;;;;;18.37;11.07;;;;;;;3.12;96.56;99088.56;5072812;28;20200;-73
2021/12/02 01:30:54;;;;;;;7.03;6.47;;;;;;;3.12;96.89;99084.34;5072823;28;20196;-73
2021/12/02 01:33:23;;;;;;;6.07;5.53;;;;;;;3.10;97.00;99080.97;5072537;28;20200;-73
2021/12/02 01:35:52;;;;;;;6.97;6.37;;;;;;;3.08;96.76;99090.28;5072228;28;20196;-73
2021/12/02 01:38:18;;;;;;;5.87;5.37;;;;;;;2.91;98.01;99083.63;5072152;28;20196;-73
2021/12/02 01:40:46;;;;;;;14.90;6.17;;;;;;;2.85;98.56;99083.63;5072560;28;20200;-73
2021/12/02 01:43:17;;;;;;;6.53;5.90;;;;;;;2.85;98.73;99084.47;5072256;28;20204;-73
2021/12/02 01:45:44;;;;;;;7.05;5.20;;;;;;;2.86;98.94;99090.38;5072176;28;20618;-73
2021/12/02 01:48:14;;;;;;;6.83;6.13;;;;;;;2.84;98.72;99087.88;5070745;28;20200;-72
2021/12/02 01:50:44;;;;;;;6.40;5.77;;;;;;;2.86;98.74;99085.31;5071312;28;20211;-73
2021/12/02 01:53:16;;;;;;;8.90;6.40;;;;;;;2.80;98.33;99091.25;5071848;28;20204;-73
2021/12/02 01:55:44;;;;;;;6.17;5.67;;;;;;;2.65;98.50;99078.63;5071962;28;20196;-73
2021/12/02 01:58:21;;;;;;;6.83;6.10;;;;;;;2.67;98.88;99088.78;5071113;28;20300;-73
2021/12/02 02:00:51;;;;;;;5.80;5.30;;;;;;;2.69;99.00;99092.97;5071960;28;20561;-74
2021/12/02 02:03:18;;;;;;;6.53;6.03;;;;;;;2.73;99.12;99097.19;5071675;28;20208;-73
2021/12/02 02:05:51;;;;;;;10.10;5.90;;;;;;;2.72;99.29;99098.03;5071899;28;20212;-73
2021/12/02 02:08:21;;;;;;;6.53;6.00;;;;;;;2.72;99.86;99098.03;5071812;28;20679;-73
2021/12/02 02:10:49;;;;;;;10.27;6.20;;;;;;;2.74;99.68;99101.41;5071933;28;20577;-74
2021/12/02 02:13:19;;;;;;;7.73;7.03;;;;;;;2.75;99.82;99092.13;5071481;28;20196;-73
2021/12/02 02:15:51;;;;;;;6.73;5.87;;;;;;;2.77;99.86;99096.34;5072034;28;20622;-74
2021/12/02 02:18:20;;;;;;;6.53;5.87;;;;;;;2.78;99.64;99092.94;5071352;28;20231;-73
2021/12/02 02:20:55;;;;;;;7.53;6.93;;;;;;;2.78;99.20;99090.41;5071828;28;20617;-74
2021/12/02 02:23:22;;;;;;;8.67;6.33;;;;;;;2.78;99.04;99092.13;5071276;28;20238;-73
2021/12/02 02:25:49;;;;;;;5.90;5.33;;;;;;;2.76;98.81;99089.56;5071398;28;20223;-74
2021/12/02 02:28:16;;;;;;;5.30;5.00;;;;;;;2.63;99.14;99083.72;5071584;28;20204;-74
2021/12/02 02:30:43;;;;;;;6.07;5.63;;;;;;;2.51;99.99;99085.44;5071231;28;20206;-74
2021/12/02 02:33:11;;;;;;;5.90;5.40;;;;;;;2.54;99.77;99090.50;5071301;28;20196;-74
2021/12/02 02:35:38;;;;;;;6.20;5.70;;;;;;;2.54;99.76;99090.50;5071119;28;20200;-74
2021/12/02 02:38:07;;;;;;;9.37;5.60;;;;;;;2.55;99.62;99084.59;5070068;28;20821;-74
2021/12/02 02:40:35;;;;;;;7.17;4.90;;;;;;;2.52;99.61;99090.50;5069445;28;20694;-73
2021/12/02 02:43:07;;;;;;;6.40;6.00;;;;;;;2.52;100.00;99080.38;5068386;28;20232;-74
2021/12/02 02:45:34;;;;;;;5.53;5.10;;;;;;;2.54;99.96;99082.91;5069243;28;20780;-73
2021/12/02 02:48:01;;;;;;;7.13;5.67;;;;;;;2.55;99.74;99087.13;5068093;28;20211;-74
2021/12/02 02:50:30;;;;;;;5.23;4.93;;;;;;;2.55;99.25;99092.19;5069251;28;20207;-74
2021/12/02 02:53:03;;;;;;;6.80;5.97;;;;;;;2.50;98.99;99086.28;5069360;28;20204;-74
2021/12/02 02:55:34;;;;;;;7.43;6.03;;;;;;;2.48;99.07;99088.84;5069443;28;20199;-75
2021/12/02 02:58:06;;;;;;;7.40;6.23;;;;;;;2.36;99.93;99093.09;5071114;28;20757;-74
2021/12/02 03:00:34;;;;;;;7.27;6.57;;;;;;;2.30;100.00;99088.88;5068810;28;20200;-75
2021/12/02 03:03:17;;;;;;;8.07;7.47;;;;;;;2.31;100.00;99100.69;5068825;28;20200;-74
2021/12/02 03:05:58;;;;;;;8.03;7.37;;;;;;;2.30;100.00;99103.19;5068527;28;20219;-74
2021/12/02 03:08:34;;;;;;;8.07;7.33;;;;;;;2.33;100.00;99105.72;5068781;28;20211;-75
2021/12/02 03:11:02;;;;;;;15.33;8.77;;;;;;;2.29;100.00;99107.44;5068926;28;20236;-75
2021/12/02 03:13:37;;;;;;;8.93;8.00;;;;;;;2.25;100.00;99108.28;5066804;28;20199;-75
2021/12/02 03:18:51;;;;;;;10.00;7.80;;;;;;;2.26;100.00;99116.72;5070518;28;20719;-74
2021/12/02 03:21:19;;;;;;;7.63;6.93;;;;;;;2.27;100.00;99108.25;5070656;28;20200;-75
2021/12/02 03:23:50;;;;;;;7.77;7.03;;;;;;;2.28;100.00;99102.38;5070621;28;20202;-75
2021/12/02 03:26:19;;;;;;;10.67;6.60;;;;;;;2.30;100.00;99109.09;5070348;28;20215;-74
2021/12/02 03:28:48;;;;;;;10.67;7.47;;;;;;;2.33;100.00;99108.25;5070584;28;20196;-74
2021/12/02 03:31:15;;;;;;;7.30;6.17;;;;;;;2.35;100.00;99109.09;5070501;28;20203;-74
2021/12/02 03:33:42;;;;;;;7.83;7.07;;;;;;;2.36;100.00;99119.19;5070533;28;20196;-74
2021/12/02 03:36:10;;;;;;;7.47;6.80;;;;;;;2.39;100.00;99108.25;5070698;28;20664;-74
2021/12/02 03:38:37;;;;;;;7.40;6.70;;;;;;;2.26;100.00;99093.97;5070444;28;20206;-74
2021/12/02 03:41:04;;;;;;;7.13;6.40;;;;;;;2.38;100.00;99111.63;5069885;28;20200;-73
2021/12/02 03:43:36;;;;;;;8.27;6.60;;;;;;;2.41;100.00;99106.56;5069420;28;20207;-74
2021/12/02 03:46:03;;;;;;;6.73;6.30;;;;;;;2.42;100.00;99108.25;5069490;28;20607;-73
2021/12/02 03:48:30;;;;;;;6.87;6.37;;;;;;;2.42;100.00;99114.16;5070331;28;20210;-74
2021/12/02 03:50:58;;;;;;;7.13;6.60;;;;;;;2.43;100.00;99114.97;5070690;28;20227;-74
2021/12/02 03:53:25;;;;;;;8.80;6.33;;;;;;;2.27;100.00;99080.44;5070298;28;20648;-74
2021/12/02 03:55:52;;;;;;;7.40;6.20;;;;;;;2.44;100.00;99102.34;5070270;28;20206;-74
2021/12/02 03:58:18;;;;;;;6.90;5.97;;;;;;;2.45;100.00;99103.19;5070482;28;20207;-74
2021/12/02 04:00:47;;;;;;;7.73;7.03;;;;;;;2.42;100.00;99093.91;5070213;28;20199;-74
2021/12/02 04:03:14;;;;;;;6.63;6.23;;;;;;;2.38;100.00;99104.03;5070090;28;20208;-74
2021/12/02 04:05:41;;;;;;;6.10;5.70;;;;;;;2.39;100.00;99098.16;5070175;28;20212;-74
2021/12/02 04:08:11;;;;;;;9.53;6.50;;;;;;;2.35;100.00;99076.22;5069791;28;20200;-74
2021/12/02 04:10:38;;;;;;;6.97;6.37;;;;;;;2.40;100.00;99095.59;5070231;28;20253;-75
2021/12/02 04:13:09;;;;;;;6.00;5.50;;;;;;;2.40;100.00;99090.53;5070119;28;20279;-75
2021/12/02 04:15:39;;;;;;;6.70;6.27;;;;;;;2.42;100.00;99082.97;5070112;28;20738;-74
2021/12/02 04:18:08;;;;;;;8.40;7.53;;;;;;;2.35;100.00;99076.22;5069945;28;20240;-74
2021/12/02 04:20:37;;;;;;;8.33;7.40;;;;;;;2.41;100.00;99081.25;5069854;28;20284;-74
2021/12/02 04:23:04;;;;;;;7.90;6.07;;;;;;;2.32;100.00;99064.44;5074129;28;20222;-74
2021/12/02 04:25:31;;;;;;;5.70;5.20;;;;;;;2.41;100.00;99081.25;5073551;28;20410;-74
2021/12/02 04:27:58;;;;;;;6.90;6.37;;;;;;;2.39;100.00;99085.50;5073678;28;20199;-74
2021/12/02 04:30:27;;;;;;;7.43;6.70;;;;;;;2.25;100.00;99075.41;5073596;28;20199;-74
2021/12/02 04:32:55;;;;;;;7.33;6.43;;;;;;;2.23;100.00;99086.38;5073840;28;20575;-74
2021/12/02 04:35:23;;;;;;;14.17;8.03;;;;;;;2.16;100.00;99095.66;5073446;28;20195;-74
2021/12/02 04:37:52;;;;;;;10.70;8.27;;;;;;;2.16;100.00;99100.72;5073657;28;20200;-74
2021/12/02 04:40:21;;;;;;;14.37;8.53;;;;;;;2.08;100.00;99103.25;5071140;28;20203;-75
2021/12/02 04:42:49;;;;;;;21.30;10.87;;;;;;;2.05;100.00;99102.41;5067554;28;20224;-75
2021/12/02 04:45:16;;;;;;;41.10;16.03;;;;;;;2.03;100.00;99104.94;5071014;28;20599;-75
2021/12/02 04:47:44;;;;;;;91.20;30.57;;;;;;;2.08;100.00;99105.78;5071258;28;20192;-74
2021/12/02 04:50:11;;;;;;;95.70;31.13;;;;;;;2.03;100.00;99110.00;5071829;28;20812;-75
2021/12/02 04:52:40;;;;;;;65.87;23.43;;;;;;;2.05;100.00;99108.31;5070903;28;20200;-75
2021/12/02 04:55:09;;;;;;;19.97;12.13;;;;;;;1.80;100.00;99106.63;5071489;28;20203;-75
2021/12/02 04:57:36;;;;;;;15.33;10.87;;;;;;;1.81;100.00;99108.28;5070759;28;20695;-73
2021/12/02 05:00:06;;;;;;;10.37;9.27;;;;;;;1.83;100.00;99104.09;5071059;28;20203;-74
2021/12/02 05:02:33;;;;;;;11.73;8.33;;;;;;;1.81;100.00;99102.44;5071224;28;20207;-75
2021/12/02 05:04:59;;;;;;;9.57;7.70;;;;;;;1.67;100.00;99099.88;5066731;28;20223;-75
2021/12/02 05:07:26;;;;;;;9.43;7.90;;;;;;;1.68;100.00;99101.56;5065551;28;20205;-75
2021/12/02 05:09:55;;;;;;;12.20;8.77;;;;;;;1.64;100.00;99099.88;5067426;28;20199;-74
2021/12/02 05:12:22;;;;;;;16.27;11.23;;;;;;;1.66;100.00;99098.19;5066407;28;20204;-75
2021/12/02 05:14:49;;;;;;;15.73;9.67;;;;;;;1.69;100.00;99099.88;5068303;28;20679;-74
2021/12/02 05:17:15;;;;;;;17.03;10.40;;;;;;;1.65;100.00;99090.63;5068412;28;20614;-75
2021/12/02 05:19:42;;;;;;;15.90;10.63;;;;;;;1.75;100.00;99097.34;5068162;28;20203;-74
2021/12/02 05:22:09;;;;;;;33.93;19.73;;;;;;;1.74;100.00;99094.00;5068318;28;20626;-75
2021/12/02 05:24:36;;;;;;;31.57;19.27;;;;;;;1.73;100.00;99104.94;5068563;28;20215;-74
2021/12/02 05:27:06;;;;;;;17.63;12.40;;;;;;;1.73;100.00;99114.19;5067851;28;20403;-74
2021/12/02 05:29:33;;;;;;;17.90;11.00;;;;;;;1.61;100.00;99110.00;5066866;28;20200;-74
2021/12/02 05:31:59;;;;;;;19.57;13.23;;;;;;;1.68;100.00;99116.72;5067883;28;20735;-74
2021/12/02 05:34:26;;;;;;;23.20;14.13;;;;;;;1.68;100.00;99113.38;5067125;28;20575;-74
2021/12/02 05:36:53;;;;;;;29.37;16.77;;;;;;;1.70;100.00;99116.72;5066610;28;20208;-74
2021/12/02 05:39:20;;;;;;;27.00;14.80;;;;;;;1.67;100.00;99116.72;5066782;28;20269;-75
2021/12/02 05:41:47;;;;;;;33.00;16.27;;;;;;;1.62;100.00;99116.72;5061804;28;20228;-74
2021/12/02 05:44:16;;;;;;;32.60;16.03;;;;;;;1.68;100.00;99121.75;5062987;28;20208;-74
2021/12/02 05:46:42;;;;;;;33.10;19.50;;;;;;;1.54;100.00;99115.88;5065942;28;20227;-78
2021/12/02 05:49:09;;;;;;;47.43;26.10;;;;;;;1.46;100.00;99115.00;5066079;28;20424;-73
2021/12/02 05:51:36;;;;;;;26.67;19.17;;;;;;;1.48;100.00;99119.25;5067373;28;20843;-73
2021/12/02 05:54:03;;;;;;;43.70;24.90;;;;;;;1.57;100.00;99118.41;5066916;28;20580;-72
2021/12/02 05:56:30;;;;;;;52.67;30.53;;;;;;;1.57;100.00;99115.88;5067549;28;20204;-73
2021/12/02 05:58:57;;;;;;;39.23;24.73;;;;;;;1.49;100.00;99109.97;5067502;28;20204;-73
2021/12/02 06:01:25;;;;;;;43.40;22.53;;;;;;;1.55;100.00;99117.56;5066803;28;20214;-73
2021/12/02 06:03:52;;;;;;;46.20;26.03;;;;;;;1.58;100.00;99110.81;5067282;28;20204;-72
2021/12/02 06:06:19;;;;;;;40.37;23.00;;;;;;;1.54;100.00;99108.31;5066809;28;20228;-72
2021/12/02 06:08:46;;;;;;;33.43;20.03;;;;;;;1.55;100.00;99115.88;5067120;28;20199;-72
2021/12/02 06:11:13;;;;;;;24.13;14.97;;;;;;;1.53;100.00;99114.19;5067168;28;20223;-72
2021/12/02 06:13:40;;;;;;;17.53;15.40;;;;;;;1.47;100.00;99107.44;5067380;28;20222;-72
2021/12/02 06:16:07;;;;;;;19.60;16.33;;;;;;;1.51;100.00;99104.09;5065032;28;21588;-72
2021/12/02 06:18:35;;;;;;;23.43;13.63;;;;;;;1.60;100.00;99123.47;5067171;28;20576;-72
2021/12/02 06:21:02;;;;;;;15.73;12.13;;;;;;;1.60;100.00;99113.34;5067127;28;20649;-72
2021/12/02 06:23:29;;;;;;;39.07;17.20;;;;;;;1.57;100.00;99114.19;5066522;28;20207;-72
2021/12/02 06:25:56;;;;;;;28.30;16.83;;;;;;;1.57;100.00;99126.84;5067454;28;20720;-72
2021/12/02 06:28:23;;;;;;;31.10;16.63;;;;;;;1.59;100.00;99122.63;5068790;28;20580;-72
2021/12/02 06:30:50;;;;;;;34.77;16.77;;;;;;;1.47;100.00;99091.44;5071263;28;20196;-72
2021/12/02 06:33:17;;;;;;;26.27;17.57;;;;;;;1.70;100.00;99125.16;5071539;28;20278;-71
2021/12/02 06:35:45;;;;;;;29.40;18.00;;;;;;;1.72;100.00;99109.97;5069842;28;20191;-72
2021/12/02 06:38:12;;;;;;;35.87;19.87;;;;;;;1.75;100.00;99113.34;5069292;28;20300;-72
2021/12/02 06:40:42;;;;;;;28.63;17.40;;;;;;;1.78;100.00;99112.53;5071026;28;20207;-72
2021/12/02 06:43:09;;;;;;;30.70;17.93;;;;;;;1.87;100.00;99113.38;5071076;28;20228;-73
2021/12/02 06:45:36;;;;;;;24.40;16.63;;;;;;;1.87;100.00;99115.06;5070729;28;20218;-72
2021/12/02 06:48:03;;;;;;;23.27;17.10;;;;;;;1.87;100.00;99123.50;5071110;28;20196;-73
2021/12/02 06:50:33;;;;;;;31.47;17.50;;;;;;;1.93;100.00;99132.75;5070706;28;20196;-72
2021/12/02 06:53:02;;;;;;;34.90;18.93;;;;;;;1.96;100.00;99123.47;5071328;28;20258;-72
2021/12/02 06:55:28;;;;;;;29.60;20.10;;;;;;;2.00;100.00;99117.56;5070711;28;20199;-72
2021/12/02 06:57:55;;;;;;;29.17;19.47;;;;;;;2.06;100.00;99110.00;5070663;28;20703;-72
2021/12/02 07:00:23;;;;;;;32.83;20.83;;;;;;;2.06;100.00;99114.22;5070859;28;20204;-72
2021/12/02 07:02:52;;;;;;;48.63;24.73;;;;;;;2.13;100.00;99111.66;5070660;28;20196;-72
2021/12/02 07:05:19;;;;;;;38.80;22.10;;;;;;;2.07;100.00;99115.88;5070123;28;20287;-72
2021/12/02 07:07:47;;;;;;;44.17;22.63;;;;;;;2.09;100.00;99119.25;5070747;28;20206;-72
2021/12/02 07:10:19;;;;;;;42.57;22.50;;;;;;;2.11;100.00;99105.75;5067904;28;20200;-72
2021/12/02 07:12:48;;;;;;;33.63;19.97;;;;;;;2.16;100.00;99109.97;5070622;28;20287;-72
2021/12/02 07:15:18;;;;;;;29.33;19.30;;;;;;;2.15;100.00;99120.94;5070469;28;20215;-73
2021/12/02 07:17:46;;;;;;;30.83;18.37;;;;;;;2.19;100.00;99130.19;5070357;28;20283;-72
2021/12/02 07:20:13;;;;;;;21.60;14.87;;;;;;;2.18;100.00;99108.28;5070854;28;20208;-72
2021/12/02 07:22:40;;;;;;;25.23;16.03;;;;;;;2.25;100.00;99120.06;5069989;28;20200;-72
2021/12/02 07:25:08;;;;;;;27.30;17.53;;;;;;;2.36;100.00;99128.50;5070436;28;20281;-72
2021/12/02 07:27:37;;;;;;;19.90;13.50;;;;;;;2.34;100.00;99120.91;5070248;28;20269;-72
2021/12/02 07:30:06;;;;;;;20.50;12.60;;;;;;;2.28;100.00;99109.94;5070131;28;21862;-72
2021/12/02 07:32:40;;;;;;;16.47;12.50;;;;;;;2.39;100.00;99129.31;5068743;28;20200;-72
2021/12/02 07:35:11;;;;;;;21.77;14.67;;;;;;;2.43;100.00;99135.22;5068173;28;20200;-71
2021/12/02 07:37:41;;;;;;;17.20;12.33;;;;;;;2.48;100.00;99134.38;5067036;28;20283;-71
2021/12/02 07:40:10;;;;;;;19.43;12.50;;;;;;;2.58;100.00;99137.72;5068834;28;20214;-72
2021/12/02 07:42:38;;;;;;;27.20;14.10;;;;;;;2.66;100.00;99136.00;5069210;28;20311;-72
2021/12/02 07:45:06;;;;;;;23.23;15.73;;;;;;;2.76;100.00;99127.53;5069084;28;20196;-71
2021/12/02 07:47:34;;;;;;;20.97;14.13;;;;;;;2.83;100.00;99116.56;5069248;28;20837;-71
2021/12/02 07:50:01;;;;;;;20.40;13.73;;;;;;;2.95;100.00;99111.44;5068559;28;20699;-71
2021/12/02 07:52:31;;;;;;;23.97;13.27;;;;;;;3.09;100.00;99124.03;5068933;28;20833;-71
2021/12/02 07:55:05;;;;;;;19.13;13.53;;;;;;;3.18;100.00;99119.75;5068263;28;20254;-71
2021/12/02 07:57:34;;;;;;;17.43;12.87;;;;;;;3.28;100.00;99107.03;5070777;28;20215;-71
2021/12/02 08:00:04;;;;;;;13.33;11.20;;;;;;;3.24;100.00;99085.09;5072587;28;20202;-71
2021/12/02 08:02:33;;;;;;;12.67;11.50;;;;;;;3.47;100.00;99116.22;5074145;28;20203;-71
2021/12/02 08:05:00;;;;;;;16.23;11.27;;;;;;;3.59;100.00;99111.91;5074099;28;20577;-70
2021/12/02 08:07:27;;;;;;;14.23;10.47;;;;;;;3.73;100.00;99109.28;5074263;28;20591;-71
2021/12/02 08:09:54;;;;;;;14.10;12.50;;;;;;;3.88;100.00;99104.06;5074183;28;20196;-71
2021/12/02 08:12:21;;;;;;;15.93;12.50;;;;;;;3.96;100.00;99097.25;5073761;28;20200;-72
2021/12/02 08:14:49;;;;;;;24.53;14.40;;;;;;;4.15;100.00;99098.78;5074413;28;20200;-72
2021/12/02 08:17:17;;;;;;;16.40;10.83;;;;;;;4.19;100.00;99105.50;5073889;28;20607;-71
2021/12/02 08:19:44;;;;;;;21.47;12.57;;;;;;;4.35;100.00;99101.13;5073896;28;20199;-71
2021/12/02 08:22:11;;;;;;;19.83;12.43;;;;;;;4.51;100.00;99101.81;5073799;28;20242;-71
2021/12/02 08:24:38;;;;;;;13.17;11.83;;;;;;;4.55;100.00;99095.84;5074337;28;20653;-71
2021/12/02 08:27:05;;;;;;;12.57;10.03;;;;;;;4.69;100.00;99096.50;5073744;28;20212;-72
2021/12/02 08:29:32;;;;;;;11.00;9.97;;;;;;;4.80;100.00;99097.25;5073763;28;20203;-72
2021/12/02 08:32:00;;;;;;;11.60;9.87;;;;;;;4.97;100.00;99095.34;5072734;28;20286;-72
2021/12/02 08:34:29;;;;;;;13.50;11.30;;;;;;;5.04;100.00;99091.84;5072231;28;20208;-71
2021/12/02 08:36:56;;;;;;;12.63;10.40;;;;;;;5.18;100.00;99094.22;5073454;28;20655;-72
2021/12/02 08:39:25;;;;;;;15.33;11.00;;;;;;;5.27;100.00;99092.38;5073625;28;20214;-71
2021/12/02 08:41:54;;;;;;;15.43;12.03;;;;;;;5.43;100.00;99092.19;5073883;28;20716;-71
2021/12/02 08:44:22;;;;;;;12.87;10.47;;;;;;;5.53;100.00;99092.00;5073470;28;20279;-70
2021/12/02 08:46:51;;;;;;;18.73;11.83;;;;;;;5.68;100.00;99103.66;5073725;28;20233;-71
2021/12/02 08:49:18;;;;;;;16.00;12.80;;;;;;;5.78;100.00;99079.78;5073306;28;20208;-70
2021/12/02 08:51:47;;;;;;;19.90;13.13;;;;;;;5.98;100.00;99098.09;5073219;28;20199;-71
2021/12/02 08:54:15;;;;;;;15.77;12.57;;;;;;;5.96;98.75;99060.84;5073351;28;20206;-71
2021/12/02 08:56:42;;;;;;;15.37;11.80;;;;;;;6.21;98.82;99080.75;5073330;28;20286;-71
2021/12/02 08:59:09;;;;;;;22.07;14.73;;;;;;;6.32;98.08;99063.59;5073350;28;20194;-72
2021/12/02 09:01:36;;;;;;;15.30;12.30;;;;;;;6.40;96.11;99060.88;5073205;28;20200;-72
2021/12/02 09:04:03;;;;;;;14.53;12.30;;;;;;;6.43;96.03;99054.91;5072867;28;20212;-71
2021/12/02 09:06:31;;;;;;;18.00;12.63;;;;;;;6.51;97.17;99051.34;5072183;28;20220;-70
2021/12/02 09:08:59;;;;;;;18.30;12.37;;;;;;;6.53;98.40;99051.28;5072969;28;20206;-71
2021/12/02 09:11:29;;;;;;;14.23;11.67;;;;;;;6.57;98.42;99041.03;5073264;28;20614;-72
2021/12/02 09:13:58;;;;;;;19.83;11.43;;;;;;;6.70;97.74;99051.81;5073082;28;20283;-72
2021/12/02 09:16:25;;;;;;;14.63;12.10;;;;;;;6.69;97.43;99048.41;5068840;28;20192;-72
2021/12/02 09:18:53;;;;;;;14.47;11.60;;;;;;;6.71;98.36;99048.41;5069856;28;20678;-71
2021/12/02 09:21:20;;;;;;;14.10;11.10;;;;;;;6.82;98.92;99043.91;5073095;28;20298;-72
2021/12/02 09:23:48;;;;;;;13.40;11.70;;;;;;;6.94;99.16;99037.72;5072795;28;20274;-71
2021/12/02 09:26:17;;;;;;;10.93;9.87;;;;;;;7.00;98.03;99024.84;5072951;28;20265;-72
2021/12/02 09:28:50;;;;;;;14.70;11.43;;;;;;;7.18;96.66;99035.47;5071161;28;20215;-72
2021/12/02 09:31:17;;;;;;;14.43;10.93;;;;;;;7.19;96.24;99032.06;5070791;28;20262;-72
2021/12/02 09:33:44;;;;;;;19.80;12.77;;;;;;;7.28;95.05;99029.31;5072513;28;20212;-71
2021/12/02 09:36:11;;;;;;;17.30;11.57;;;;;;;7.35;95.84;99015.53;5072636;28;20200;-71
2021/12/02 09:38:38;;;;;;;18.63;12.00;;;;;;;7.49;95.09;99027.97;5072443;28;20195;-71
2021/12/02 09:41:05;;;;;;;23.50;11.77;;;;;;;7.52;93.48;99012.59;5072532;28;20196;-72
2021/12/02 09:43:33;;;;;;;28.23;15.00;;;;;;;7.66;93.20;99000.31;5072329;28;20691;-72
2021/12/02 09:46:00;;;;;;;27.03;14.00;;;;;;;7.74;92.50;99007.81;5072473;28;20665;-72
2021/12/02 09:48:28;;;;;;;18.90;13.23;;;;;;;7.87;93.60;98994.69;5072433;28;20206;-72
2021/12/02 09:51:03;;;;;;;21.60;13.17;;;;;;;7.98;93.10;99001.25;5072293;28;20210;-72
2021/12/02 09:53:34;;;;;;;23.03;13.03;;;;;;;8.08;93.26;98995.84;5072406;28;20196;-72
2021/12/02 09:56:10;;;;;;;20.27;14.13;;;;;;;8.15;91.72;98989.69;5072263;28;20575;-72
2021/12/02 09:58:38;;;;;;;26.60;14.33;;;;;;;8.23;90.00;98982.69;5072187;28;20282;-72
2021/12/02 10:01:08;;;;;;;38.27;17.50;;;;;;;8.21;90.17;98971.66;5072305;28;21571;-71
2021/12/02 10:03:38;;;;;;;28.47;13.33;;;;;;;8.40;89.43;98979.69;5070064;28;20561;-71
2021/12/02 10:06:08;;;;;;;16.30;12.53;;;;;;;8.49;87.92;98973.47;5071982;28;20687;-71
2021/12/02 10:08:42;;;;;;;20.70;12.20;;;;;;;8.58;86.68;98968.09;5069460;28;20208;-72
2021/12/02 10:11:11;;;;;;;12.10;10.90;;;;;;;8.68;85.58;98954.19;5071887;28;20200;-72
2021/12/02 10:13:46;;;;;;;15.57;10.50;;;;;;;8.85;86.37;98951.97;5071952;28;20200;-72
2021/12/02 10:16:20;;;;;;;21.60;12.60;;;;;;;8.95;85.90;98943.09;5071600;28;20207;-72
2021/12/02 10:18:54;;;;;;;17.47;11.23;;;;;;;9.03;83.62;98938.59;5071202;28;20564;-72
2021/12/02 10:21:26;;;;;;;13.63;11.60;;;;;;;9.16;83.76;98936.50;5071809;28;20283;-72
2021/12/02 10:23:54;;;;;;;16.60;11.17;;;;;;;9.23;83.41;98933.72;5071891;28;20200;-72
2021/12/02 10:26:23;;;;;;;9.43;8.13;;;;;;;9.31;84.58;98929.16;5070246;28;20200;-72
2021/12/02 10:28:54;;;;;;;10.27;9.03;;;;;;;9.39;82.40;98931.47;5070467;28;20204;-72
2021/12/02 10:31:24;;;;;;;13.83;8.57;;;;;;;9.50;81.71;98912.31;5071112;28;20207;-72
2021/12/02 10:33:54;;;;;;;8.57;7.10;;;;;;;9.66;80.76;98916.94;5071444;28;20199;-72
2021/12/02 10:36:30;;;;;;;4.97;4.67;;;;;;;9.65;78.48;98915.25;5071336;28;20254;-72
2021/12/02 10:39:00;;;;;;;5.57;5.13;;;;;;;9.70;77.41;98913.38;5071488;28;20683;-72
2021/12/02 10:41:29;;;;;;;5.43;5.03;;;;;;;9.82;75.79;98923.19;5071356;28;20220;-71
2021/12/02 10:44:12;;;;;;;5.10;4.70;;;;;;;9.90;75.77;98932.28;5071104;28;20204;-72
2021/12/02 10:46:42;;;;;;;8.50;7.77;;;;;;;9.93;77.53;98929.59;5071061;28;20212;-72
2021/12/02 10:49:16;;;;;;;18.63;11.47;;;;;;;10.02;78.01;98925.88;5071081;28;20200;-71
2021/12/02 10:51:46;;;;;;;11.20;10.00;;;;;;;10.05;78.40;98920.66;5071365;28;20223;-72
2021/12/02 10:54:16;;;;;;;11.70;9.63;;;;;;;10.16;78.83;98917.75;5069962;28;20234;-71
2021/12/02 10:56:46;;;;;;;13.57;8.80;;;;;;;10.19;77.92;98918.47;5070920;28;20188;-72
2021/12/02 10:59:33;;;;;;;8.77;7.90;;;;;;;10.22;76.51;98900.44;5071058;28;20227;-71
2021/12/02 11:02:03;;;;;;;13.53;8.43;;;;;;;10.28;76.16;98901.91;5071039;28;20203;-72
2021/12/02 11:04:41;;;;;;;9.23;7.63;;;;;;;10.30;75.65;98901.00;5070376;28;20629;-72
2021/12/02 11:07:13;;;;;;;6.17;5.67;;;;;;;10.30;74.42;98895.88;5070783;28;20242;-72
2021/12/02 11:09:41;;;;;;;6.50;6.00;;;;;;;10.43;75.03;98896.25;5070982;28;20199;-72
2021/12/02 11:12:14;;;;;;;6.70;6.10;;;;;;;10.48;75.68;98884.09;5070814;28;20199;-72
2021/12/02 11:14:51;;;;;;;6.23;5.60;;;;;;;10.59;75.59;98878.56;5070953;28;20188;-72
2021/12/02 11:17:18;;;;;;;9.37;8.50;;;;;;;10.48;75.83;98859.28;5069227;28;20203;-71
2021/12/02 11:19:46;;;;;;;8.47;7.60;;;;;;;10.63;75.94;98857.03;5070871;28;20192;-72
2021/12/02 11:22:16;;;;;;;7.43;6.67;;;;;;;10.77;77.06;98876.09;5070838;28;20282;-72
2021/12/02 11:24:44;;;;;;;7.30;6.20;;;;;;;10.80;76.90;98872.56;5070233;28;20691;-72
2021/12/02 11:27:14;;;;;;;5.57;5.17;;;;;;;10.63;75.86;98831.41;5069678;28;20241;-72
2021/12/02 11:30:05;;;;;;;7.70;6.83;;;;;;;10.88;77.11;98862.88;5070453;28;20309;-72
2021/12/02 11:32:41;;;;;;;5.47;4.93;;;;;;;10.93;78.93;98856.66;5064157;28;20200;-72
2021/12/02 11:35:27;;;;;;;5.77;5.37;;;;;;;11.01;77.22;98856.34;5070492;28;20192;-72
2021/12/02 11:37:57;;;;;;;7.17;5.20;;;;;;;11.01;75.16;98853.78;5070551;28;20192;-72